Time;durP1;ratioP1;P1;durP2;ratioP2;P2;SDS_P1;SDS_P2;PMS_P1;PMS_P2;Temp;Humidity;BMP_temperature;BMP_pressure;BME280_temperature;BME280_humidity;BME280_pressure;Samples;Min_cycle;Max_cycle;Signal;HPM_P1;HPM_P2
2023/09/25 00:00:08;;;;;;;2.08;0.80;;;21.60;99.90;;;;;;5026008;28;20204;-82
2023/09/25 00:02:38;;;;;;;2.25;0.88;;;21.70;99.90;;;;;;5010472;28;20587;-83
2023/09/25 00:05:09;;;;;;;0.68;0.60;;;21.80;99.90;;;;;;5015438;28;20194;-83
2023/09/25 00:07:40;;;;;;;2.20;0.50;;;21.90;99.90;;;;;;5021190;28;20383;-82
2023/09/25 00:10:11;;;;;;;1.27;0.63;;;22.10;99.90;;;;;;5029654;28;20197;-82
2023/09/25 00:12:42;;;;;;;1.80;0.80;;;22.10;99.90;;;;;;5029255;28;20236;-83
2023/09/25 00:15:15;;;;;;;1.40;0.80;;;22.20;99.90;;;;;;5050655;28;20256;-83
2023/09/25 00:17:46;;;;;;;1.27;0.55;;;22.20;99.90;;;;;;5021379;28;20221;-83
2023/09/25 00:20:20;;;;;;;2.28;0.70;;;22.40;99.90;;;;;;5012167;28;20205;-83
2023/09/25 00:22:50;;;;;;;1.35;0.80;;;22.60;99.90;;;;;;5012174;28;20206;-83
2023/09/25 00:25:22;;;;;;;1.15;0.60;;;22.80;99.90;;;;;;5011395;28;20198;-82
2023/09/25 00:27:53;;;;;;;1.10;0.60;;;22.90;99.90;;;;;;5011120;28;20241;-82
2023/09/25 00:30:26;;;;;;;3.70;0.70;;;22.90;99.90;;;;;;5019009;28;20536;-82
2023/09/25 00:32:56;;;;;;;0.75;0.60;;;23.00;99.90;;;;;;5029195;28;20308;-83
2023/09/25 00:35:27;;;;;;;1.27;0.65;;;23.10;99.90;;;;;;5030159;28;20221;-83
2023/09/25 00:37:58;;;;;;;2.88;0.82;;;23.20;99.90;;;;;;5012349;28;20256;-85
2023/09/25 00:40:30;;;;;;;1.02;0.60;;;23.20;99.90;;;;;;5010971;28;20190;-83
2023/09/25 00:43:00;;;;;;;2.13;0.90;;;23.10;99.90;;;;;;5028348;28;20201;-84
2023/09/25 00:45:36;;;;;;;2.20;0.70;;;23.30;99.90;;;;;;5024363;28;20197;-85
2023/09/25 00:48:07;;;;;;;1.27;0.65;;;23.40;99.70;;;;;;5025469;28;20197;-84
2023/09/25 00:50:39;;;;;;;1.98;0.70;;;23.50;99.40;;;;;;5024933;28;20208;-84
2023/09/25 00:53:10;;;;;;;3.00;0.70;;;23.60;98.40;;;;;;5030209;28;20193;-84
2023/09/25 00:55:41;;;;;;;1.13;0.60;;;23.70;98.30;;;;;;5030070;28;20528;-84
2023/09/25 00:58:13;;;;;;;1.90;0.60;;;23.80;96.50;;;;;;5030092;28;20238;-85
2023/09/25 01:00:49;;;;;;;1.60;0.52;;;23.80;96.30;;;;;;5030428;28;20576;-85
2023/09/25 01:03:19;;;;;;;1.77;0.68;;;23.90;96.80;;;;;;5028812;28;20213;-84
2023/09/25 01:05:51;;;;;;;2.20;0.95;;;24.00;97.70;;;;;;5030556;28;20205;-85
2023/09/25 01:08:21;;;;;;;2.47;1.10;;;24.10;97.80;;;;;;5030057;28;20200;-84
2023/09/25 01:10:52;;;;;;;3.15;1.10;;;24.20;99.90;;;;;;5030031;28;20204;-84
2023/09/25 01:13:23;;;;;;;1.77;0.93;;;24.20;99.90;;;;;;5031654;28;20233;-85
2023/09/25 01:15:57;;;;;;;4.70;1.30;;;24.30;99.90;;;;;;5033310;28;20229;-86
2023/09/25 01:18:27;;;;;;;5.75;1.42;;;24.30;99.90;;;;;;5033067;28;20204;-85
2023/09/25 01:20:58;;;;;;;3.42;1.48;;;24.40;99.90;;;;;;5034153;28;20206;-86
2023/09/25 01:23:31;;;;;;;5.07;1.35;;;24.40;99.90;;;;;;5031744;28;20680;-86
2023/09/25 01:26:01;;;;;;;2.60;1.30;;;24.30;99.90;;;;;;5015989;28;20291;-84
2023/09/25 01:28:32;;;;;;;5.10;1.55;;;24.30;99.90;;;;;;5022433;28;20189;-85
2023/09/25 01:31:03;;;;;;;8.35;1.52;;;24.30;99.90;;;;;;5033455;28;20561;-84
2023/09/25 01:33:35;;;;;;;1.55;1.30;;;24.40;99.90;;;;;;5031957;28;20200;-84
2023/09/25 01:36:06;;;;;;;2.42;1.15;;;24.40;99.90;;;;;;5033070;28;20232;-84
2023/09/25 01:38:39;;;;;;;3.58;1.00;;;24.50;99.90;;;;;;5033581;28;20284;-84
2023/09/25 01:41:09;;;;;;;3.25;1.30;;;24.60;99.90;;;;;;5034234;28;20225;-85
2023/09/25 01:43:40;;;;;;;3.30;1.10;;;24.70;99.90;;;;;;5033504;28;20197;-85
2023/09/25 01:46:11;;;;;;;1.98;0.90;;;24.70;99.90;;;;;;5031811;28;20198;-85
2023/09/25 01:48:41;;;;;;;2.70;0.70;;;24.70;99.90;;;;;;5032932;28;20197;-85
2023/09/25 01:51:13;;;;;;;2.72;0.90;;;24.70;99.90;;;;;;5033036;28;20204;-85
2023/09/25 01:53:46;;;;;;;3.08;1.00;;;24.80;99.90;;;;;;5033458;28;20197;-88
2023/09/25 01:56:17;;;;;;;3.53;0.98;;;24.70;99.90;;;;;;5031765;28;20221;-84
2023/09/25 01:58:48;;;;;;;3.42;1.10;;;24.70;99.90;;;;;;5031198;28;20197;-85
2023/09/25 02:01:18;;;;;;;2.45;0.85;;;24.90;99.90;;;;;;5031691;28;20220;-89
2023/09/25 02:03:49;;;;;;;2.97;0.82;;;25.00;99.90;;;;;;5013227;28;20208;-85
2023/09/25 02:06:21;;;;;;;2.55;1.10;;;25.10;99.90;;;;;;5012566;28;20229;-86
2023/09/25 02:08:53;;;;;;;2.10;0.98;;;25.20;99.90;;;;;;5012954;28;20661;-85
2023/09/25 02:11:24;;;;;;;5.70;1.20;;;25.10;99.90;;;;;;5012650;28;20201;-83
2023/09/25 02:13:55;;;;;;;6.25;1.05;;;24.80;99.90;;;;;;5029829;28;20202;-86
2023/09/25 02:16:26;;;;;;;2.63;0.90;;;24.70;99.90;;;;;;5034021;28;20691;-84
2023/09/25 02:18:56;;;;;;;3.80;1.02;;;24.80;99.90;;;;;;5013181;28;20194;-84
2023/09/25 02:21:27;;;;;;;2.72;1.00;;;24.80;99.90;;;;;;5014009;28;20309;-84
2023/09/25 02:24:00;;;;;;;4.28;1.10;;;25.10;99.90;;;;;;5014053;28;20211;-88
2023/09/25 02:26:30;;;;;;;3.42;1.00;;;25.10;99.90;;;;;;5033103;28;20189;-87
2023/09/25 02:29:01;;;;;;;3.78;1.00;;;25.10;99.90;;;;;;5027143;28;20652;-86
2023/09/25 02:31:32;;;;;;;3.17;1.10;;;25.20;99.90;;;;;;5019354;28;20198;-86
2023/09/25 02:34:03;;;;;;;4.45;1.00;;;25.20;99.90;;;;;;5032215;28;20197;-87
2023/09/25 02:36:33;;;;;;;3.30;0.95;;;25.30;99.90;;;;;;5032571;28;20715;-85
2023/09/25 02:39:09;;;;;;;2.88;0.90;;;25.40;99.90;;;;;;5032220;28;20197;-87
2023/09/25 02:41:40;;;;;;;3.20;1.20;;;25.40;99.90;;;;;;5026663;28;20197;-87
2023/09/25 02:44:11;;;;;;;2.38;0.77;;;25.50;99.90;;;;;;5031701;28;20569;-87
2023/09/25 02:46:42;;;;;;;2.80;0.90;;;25.60;99.90;;;;;;5029378;28;20193;-86
2023/09/25 02:49:12;;;;;;;4.55;1.17;;;25.80;99.90;;;;;;5031860;28;20205;-86
2023/09/25 02:51:43;;;;;;;3.92;1.00;;;25.90;99.90;;;;;;5027996;28;20661;-86
2023/09/25 02:54:16;;;;;;;6.45;1.13;;;25.90;99.90;;;;;;5012341;28;20237;-86
2023/09/25 02:56:47;;;;;;;2.45;0.90;;;26.00;99.90;;;;;;5012117;28;20697;-86
2023/09/25 02:59:18;;;;;;;3.28;1.17;;;26.10;99.90;;;;;;5018316;28;20263;-86
2023/09/25 03:01:50;;;;;;;2.58;0.95;;;26.30;99.90;;;;;;5017276;28;20198;-86
2023/09/25 03:04:21;;;;;;;2.95;1.10;;;26.30;99.90;;;;;;5024972;28;20680;-87
2023/09/25 03:06:52;;;;;;;3.38;1.02;;;26.30;99.90;;;;;;5034800;28;20247;-85
2023/09/25 03:09:25;;;;;;;4.95;1.17;;;26.40;99.90;;;;;;5018162;28;20194;-85
2023/09/25 03:11:56;;;;;;;3.75;1.13;;;26.30;99.90;;;;;;5026836;28;20225;-85
2023/09/25 03:14:26;;;;;;;6.18;1.30;;;26.40;99.90;;;;;;5031126;28;20197;-84
2023/09/25 03:16:57;;;;;;;3.88;0.95;;;26.40;99.90;;;;;;5021204;28;20229;-82
2023/09/25 03:19:31;;;;;;;4.78;1.10;;;26.40;99.90;;;;;;5029418;28;20197;-84
2023/09/25 03:22:01;;;;;;;4.80;1.17;;;26.40;99.90;;;;;;5030668;28;20217;-84
2023/09/25 03:24:34;;;;;;;4.32;1.20;;;26.70;99.90;;;;;;5026854;28;20203;-84
2023/09/25 03:27:05;;;;;;;5.65;1.00;;;26.80;99.90;;;;;;5030870;28;20201;-84
2023/09/25 03:29:35;;;;;;;3.35;0.93;;;26.60;99.90;;;;;;5030820;28;20210;-84
2023/09/25 03:32:07;;;;;;;9.20;1.17;;;26.50;99.90;;;;;;5030594;28;20223;-84
2023/09/25 03:34:38;;;;;;;2.05;0.98;;;26.60;99.90;;;;;;5030574;28;20604;-84
2023/09/25 03:37:09;;;;;;;2.50;1.02;;;26.40;99.90;;;;;;5033400;28;20243;-84
2023/09/25 03:39:42;;;;;;;5.22;1.30;;;26.30;99.90;;;;;;5036461;28;20232;-84
2023/09/25 03:42:14;;;;;;;4.43;0.90;;;26.20;99.90;;;;;;5029826;28;20292;-82
2023/09/25 03:44:44;;;;;;;3.42;1.20;;;26.30;99.90;;;;;;5026194;28;20212;-83
2023/09/25 03:47:15;;;;;;;1.70;0.90;;;26.20;99.90;;;;;;5030841;28;20203;-83
2023/09/25 03:49:46;;;;;;;4.28;1.00;;;26.10;99.90;;;;;;5028803;28;20259;-83
2023/09/25 03:52:17;;;;;;;5.25;1.20;;;26.20;99.90;;;;;;5036437;28;20652;-84
2023/09/25 03:54:49;;;;;;;4.93;1.13;;;26.40;99.90;;;;;;5031526;28;20197;-83
2023/09/25 03:57:20;;;;;;;5.47;1.25;;;26.20;99.90;;;;;;5030147;28;20239;-83
2023/09/25 03:59:51;;;;;;;7.10;1.30;;;26.10;99.90;;;;;;5029212;28;20197;-83
2023/09/25 04:02:21;;;;;;;4.13;1.05;;;26.10;99.90;;;;;;5030032;28;20194;-84
2023/09/25 04:04:52;;;;;;;2.63;1.10;;;26.10;99.90;;;;;;5024679;28;20205;-84
2023/09/25 04:07:23;;;;;;;3.20;1.05;;;25.90;99.90;;;;;;5026750;28;20197;-84
2023/09/25 04:09:56;;;;;;;3.20;1.33;;;26.00;99.90;;;;;;5034184;28;20197;-83
2023/09/25 04:12:27;;;;;;;4.82;1.40;;;25.80;99.90;;;;;;5027540;28;20225;-83
2023/09/25 04:14:58;;;;;;;6.32;1.27;;;25.80;99.90;;;;;;5018782;28;20206;-84
2023/09/25 04:17:29;;;;;;;4.78;1.40;;;25.60;99.90;;;;;;5029160;28;20232;-85
2023/09/25 04:20:00;;;;;;;3.47;1.20;;;25.50;99.90;;;;;;5030396;28;20201;-84
2023/09/25 04:22:31;;;;;;;6.07;1.30;;;25.40;99.90;;;;;;5030806;28;20251;-85
2023/09/25 04:25:05;;;;;;;3.78;1.08;;;25.40;99.90;;;;;;5029963;28;20290;-83
2023/09/25 04:27:39;;;;;;;5.13;1.35;;;25.40;99.90;;;;;;5028205;28;20649;-86
2023/09/25 04:30:14;;;;;;;3.08;1.20;;;25.40;99.90;;;;;;5049671;28;20570;-85
2023/09/25 04:32:46;;;;;;;2.75;1.10;;;25.50;99.90;;;;;;5024814;28;20205;-85
2023/09/25 04:35:18;;;;;;;3.33;1.10;;;25.60;99.90;;;;;;5020884;28;20217;-85
2023/09/25 04:37:48;;;;;;;4.10;1.17;;;25.50;99.90;;;;;;5030043;28;20359;-83
2023/09/25 04:40:30;;;;;;;6.10;1.38;;;25.40;99.90;;;;;;5030711;28;20683;-84
2023/09/25 04:43:01;;;;;;;8.35;1.65;;;25.40;99.90;;;;;;5030344;28;20233;-85
2023/09/25 04:45:32;;;;;;;4.95;1.30;;;25.40;99.90;;;;;;5029244;28;20242;-86
2023/09/25 04:48:03;;;;;;;4.28;1.25;;;25.40;99.90;;;;;;5031637;28;20213;-84
2023/09/25 04:50:34;;;;;;;9.63;1.40;;;25.40;99.90;;;;;;5024970;28;20572;-86
2023/09/25 04:53:05;;;;;;;4.80;1.10;;;25.40;99.90;;;;;;5026701;28;20197;-85
2023/09/25 04:55:40;;;;;;;3.05;1.25;;;25.50;99.90;;;;;;5015115;28;20206;-86
2023/09/25 04:58:11;;;;;;;4.63;1.27;;;25.50;99.90;;;;;;5019294;28;20205;-86
2023/09/25 05:00:41;;;;;;;5.03;1.30;;;25.50;99.90;;;;;;5031833;28;20193;-85
2023/09/25 05:03:12;;;;;;;3.85;1.00;;;25.40;99.90;;;;;;5027376;28;20239;-86
2023/09/25 05:05:43;;;;;;;3.00;1.20;;;25.50;99.90;;;;;;5032209;28;20215;-84
2023/09/25 05:08:14;;;;;;;4.55;1.30;;;25.60;99.90;;;;;;5024914;28;20202;-85
2023/09/25 05:10:49;;;;;;;4.43;1.20;;;25.80;99.90;;;;;;5027816;28;20229;-85
2023/09/25 05:13:20;;;;;;;7.13;1.23;;;25.70;99.90;;;;;;5032820;28;20236;-86
2023/09/25 05:15:51;;;;;;;4.55;1.13;;;25.60;99.90;;;;;;5033310;28;20201;-86
2023/09/25 05:18:22;;;;;;;4.43;1.20;;;25.60;99.90;;;;;;5033411;28;20197;-86
2023/09/25 05:20:53;;;;;;;2.35;1.13;;;25.60;99.90;;;;;;5032417;28;20212;-87
2023/09/25 05:23:24;;;;;;;4.18;1.20;;;25.70;99.90;;;;;;5033208;28;20190;-87
2023/09/25 05:26:01;;;;;;;5.10;1.25;;;25.80;99.90;;;;;;5033157;28;20193;-88
2023/09/25 05:28:32;;;;;;;1.98;1.00;;;25.90;99.90;;;;;;5029882;28;20220;-86
2023/09/25 05:31:02;;;;;;;3.78;1.17;;;26.00;99.90;;;;;;5019865;28;20193;-85
2023/09/25 05:33:33;;;;;;;3.17;1.17;;;26.10;99.90;;;;;;5027629;28;20197;-85
2023/09/25 05:36:04;;;;;;;5.18;1.20;;;25.90;99.90;;;;;;5030666;28;20228;-87
2023/09/25 05:38:35;;;;;;;4.40;1.33;;;26.00;99.90;;;;;;5047871;28;20201;-85
2023/09/25 05:41:07;;;;;;;4.25;1.40;;;25.90;99.90;;;;;;5016470;28;20719;-86
2023/09/25 05:43:38;;;;;;;5.03;1.25;;;25.80;99.90;;;;;;5021738;28;20652;-85
2023/09/25 05:46:09;;;;;;;4.32;1.40;;;25.90;99.90;;;;;;5032958;28;20194;-86
2023/09/25 05:48:40;;;;;;;6.97;1.30;;;25.70;99.90;;;;;;5026792;28;20204;-84
2023/09/25 05:51:10;;;;;;;5.80;1.42;;;25.50;99.90;;;;;;5026903;28;20193;-86
2023/09/25 05:53:42;;;;;;;5.82;1.42;;;25.40;99.90;;;;;;5035353;28;20200;-86
2023/09/25 05:56:15;;;;;;;3.17;1.10;;;25.30;99.90;;;;;;5034110;28;20742;-86
2023/09/25 05:58:46;;;;;;;4.28;1.35;;;25.10;99.90;;;;;;5033134;28;20228;-84
2023/09/25 06:01:17;;;;;;;3.97;1.40;;;25.00;99.90;;;;;;5042460;28;20189;-86
2023/09/25 06:03:49;;;;;;;3.25;1.10;;;25.00;99.90;;;;;;5034998;28;20208;-86
2023/09/25 06:06:20;;;;;;;5.60;1.30;;;25.10;99.90;;;;;;5034163;28;20205;-85
2023/09/25 06:08:51;;;;;;;4.47;1.30;;;25.30;99.90;;;;;;5027288;28;20207;-85
2023/09/25 06:11:24;;;;;;;4.43;1.30;;;25.70;99.90;;;;;;5038350;28;20202;-85
2023/09/25 06:13:55;;;;;;;3.63;1.20;;;26.00;99.90;;;;;;5029234;28;20209;-85
2023/09/25 06:16:26;;;;;;;5.35;1.10;;;25.60;99.90;;;;;;5019816;28;20597;-86
2023/09/25 06:18:57;;;;;;;3.10;1.20;;;25.30;99.90;;;;;;5024136;28;20210;-85
2023/09/25 06:21:28;;;;;;;4.80;1.30;;;25.10;99.90;;;;;;5030159;28;20244;-84
2023/09/25 06:23:58;;;;;;;3.53;1.20;;;25.10;99.90;;;;;;5032397;28;20212;-86
2023/09/25 06:26:32;;;;;;;4.28;1.20;;;25.30;99.90;;;;;;5032809;28;20202;-86
2023/09/25 06:29:03;;;;;;;2.58;1.00;;;25.50;99.90;;;;;;5030914;28;20201;-87
2023/09/25 06:31:36;;;;;;;3.33;1.10;;;25.40;99.90;;;;;;5013028;28;20302;-86
2023/09/25 06:34:07;;;;;;;2.92;1.00;;;24.90;99.90;;;;;;5023456;28;20204;-87
2023/09/25 06:36:38;;;;;;;5.30;1.00;;;24.30;99.90;;;;;;5032338;28;20249;-86
2023/09/25 06:39:10;;;;;;;3.88;1.17;;;24.00;99.90;;;;;;5031571;28;20681;-86
2023/09/25 06:41:43;;;;;;;9.18;1.40;;;23.90;99.90;;;;;;5030546;28;20202;-85
2023/09/25 06:44:14;;;;;;;7.18;1.58;;;23.50;99.90;;;;;;5032638;28;20205;-85
2023/09/25 06:46:46;;;;;;;4.82;1.38;;;23.20;99.90;;;;;;5031960;28;20205;-85
2023/09/25 06:49:17;;;;;;;3.72;1.30;;;23.10;99.90;;;;;;5013543;28;20209;-86
2023/09/25 06:51:48;;;;;;;5.80;1.42;;;23.20;99.90;;;;;;5027659;28;20186;-87
2023/09/25 06:54:18;;;;;;;4.00;1.17;;;23.20;99.90;;;;;;5032255;28;20197;-85
2023/09/25 06:56:51;;;;;;;3.92;1.00;;;23.40;99.90;;;;;;5032147;28;20225;-83
2023/09/25 06:59:22;;;;;;;4.10;1.08;;;23.70;99.90;;;;;;5030150;28;20208;-84
2023/09/25 07:01:53;;;;;;;8.40;1.27;;;23.60;99.90;;;;;;5022951;28;20648;-85
2023/09/25 07:04:24;;;;;;;4.53;1.35;;;23.50;99.90;;;;;;5031478;28;20194;-86
2023/09/25 07:06:55;;;;;;;5.72;1.00;;;23.40;99.90;;;;;;5031407;28;20207;-86
2023/09/25 07:09:25;;;;;;;4.47;1.20;;;23.40;99.90;;;;;;5031894;28;20201;-86
2023/09/25 07:11:59;;;;;;;3.95;1.30;;;23.20;99.90;;;;;;5011234;28;20237;-87
2023/09/25 07:14:30;;;;;;;5.32;1.33;;;23.10;99.90;;;;;;5019436;28;20189;-86
2023/09/25 07:17:01;;;;;;;3.33;1.00;;;23.10;99.90;;;;;;5027266;28;20228;-86
2023/09/25 07:19:32;;;;;;;4.63;1.20;;;22.90;99.90;;;;;;5032023;28;20209;-86
2023/09/25 07:22:02;;;;;;;3.50;1.15;;;22.80;99.90;;;;;;5026680;28;20225;-86
2023/09/25 07:24:33;;;;;;;3.53;1.10;;;22.60;99.90;;;;;;5025928;28;20208;-86
2023/09/25 07:27:06;;;;;;;2.92;1.05;;;22.40;99.90;;;;;;5031901;28;20640;-87
2023/09/25 07:29:37;;;;;;;2.65;1.00;;;22.30;99.90;;;;;;5031708;28;20204;-86
2023/09/25 07:32:07;;;;;;;5.70;1.10;;;22.30;99.90;;;;;;5031629;28;20201;-87
2023/09/25 07:34:38;;;;;;;8.32;1.20;;;22.20;99.90;;;;;;5030682;28;20193;-85
2023/09/25 07:37:09;;;;;;;4.28;1.20;;;22.20;99.90;;;;;;5027810;28;20226;-85
2023/09/25 07:39:40;;;;;;;3.35;1.10;;;22.00;99.90;;;;;;5031177;28;20229;-85
2023/09/25 07:42:13;;;;;;;4.40;1.27;;;22.00;99.90;;;;;;5030152;28;20658;-85
2023/09/25 07:44:44;;;;;;;4.35;1.20;;;21.90;99.90;;;;;;5030367;28;20189;-84
2023/09/25 07:47:17;;;;;;;4.75;1.20;;;21.90;99.90;;;;;;5019944;28;20204;-86
2023/09/25 07:49:48;;;;;;;4.18;1.10;;;21.80;99.90;;;;;;5029705;28;20200;-84
2023/09/25 07:52:20;;;;;;;5.53;1.13;;;21.80;99.90;;;;;;5036773;28;20276;-85
2023/09/25 07:54:51;;;;;;;4.97;1.35;;;21.80;99.90;;;;;;5024169;28;20197;-84
2023/09/25 07:57:25;;;;;;;2.92;1.00;;;21.70;99.90;;;;;;5022947;28;20652;-85
2023/09/25 07:59:57;;;;;;;6.47;1.25;;;21.70;99.90;;;;;;5030461;28;20190;-84
2023/09/25 08:02:26;;;;;;;6.20;1.42;;;21.60;99.90;;;;;;5030920;28;20224;-85
2023/09/25 08:04:57;;;;;;;4.95;1.10;;;21.60;99.90;;;;;;5021163;28;20669;-84
2023/09/25 08:07:28;;;;;;;6.72;1.55;;;21.50;99.90;;;;;;5030137;28;20204;-85
2023/09/25 08:09:59;;;;;;;5.78;1.30;;;21.40;99.90;;;;;;5027967;28;20205;-85
2023/09/25 08:12:32;;;;;;;5.35;1.33;;;21.40;99.90;;;;;;5020862;28;20224;-85
2023/09/25 08:15:03;;;;;;;5.68;1.50;;;21.30;99.90;;;;;;5010861;28;20677;-86
2023/09/25 08:17:33;;;;;;;4.80;1.48;;;21.30;99.90;;;;;;5016242;28;20305;-85
2023/09/25 08:20:14;;;;;;;5.93;1.80;;;21.30;99.90;;;;;;5031237;28;20263;-85
2023/09/25 08:22:45;;;;;;;5.65;1.23;;;21.20;99.90;;;;;;5018334;28;20220;-84
2023/09/25 08:25:16;;;;;;;5.78;1.10;;;21.10;99.90;;;;;;5025001;28;20201;-85
2023/09/25 08:27:51;;;;;;;5.68;1.30;;;21.10;99.90;;;;;;5028644;28;20220;-83
2023/09/25 08:30:22;;;;;;;5.57;1.35;;;21.00;99.90;;;;;;5026261;28;20228;-86
2023/09/25 08:32:53;;;;;;;5.68;1.42;;;21.00;99.90;;;;;;5022942;28;20293;-85
2023/09/25 08:35:25;;;;;;;5.13;1.50;;;21.00;99.90;;;;;;5028822;28;20197;-84
2023/09/25 08:37:55;;;;;;;3.50;1.60;;;21.00;99.90;;;;;;5034300;28;20271;-85
2023/09/25 08:40:29;;;;;;;4.40;1.40;;;21.00;99.90;;;;;;5025464;28;20190;-84
2023/09/25 08:43:02;;;;;;;5.45;1.42;;;21.00;99.90;;;;;;5034283;28;20680;-83
2023/09/25 08:45:33;;;;;;;5.38;1.55;;;20.90;99.90;;;;;;5034731;28;20208;-83
2023/09/25 08:48:04;;;;;;;5.03;1.20;;;20.90;99.90;;;;;;5042490;28;20193;-84
2023/09/25 08:50:36;;;;;;;5.97;1.23;;;20.90;99.90;;;;;;5026853;28;20198;-85
2023/09/25 08:53:07;;;;;;;4.47;1.25;;;20.90;99.90;;;;;;5028895;28;20222;-83
2023/09/25 08:55:38;;;;;;;8.27;1.77;;;20.90;99.90;;;;;;5014918;28;20209;-84
2023/09/25 08:58:11;;;;;;;5.00;1.80;;;20.90;99.90;;;;;;5021162;28;20237;-84
2023/09/25 09:00:43;;;;;;;5.55;1.50;;;20.90;99.90;;;;;;5041737;28;20201;-84
2023/09/25 09:03:14;;;;;;;5.78;1.63;;;20.80;99.90;;;;;;5030519;28;20221;-84
2023/09/25 09:05:46;;;;;;;7.20;1.88;;;20.80;99.90;;;;;;5021014;28;20252;-83
2023/09/25 09:08:22;;;;;;;7.57;1.70;;;20.80;99.90;;;;;;5034567;28;20284;-85
2023/09/25 09:10:53;;;;;;;8.65;1.48;;;20.70;99.90;;;;;;5034592;28;20197;-85
2023/09/25 09:13:28;;;;;;;5.25;1.33;;;20.70;99.90;;;;;;5033270;28;20228;-85
2023/09/25 09:16:14;;;;;;;6.85;1.70;;;20.70;99.90;;;;;;5025565;28;20197;-84
2023/09/25 09:18:45;;;;;;;7.00;1.85;;;20.70;99.90;;;;;;5031808;28;20283;-86
2023/09/25 09:21:26;;;;;;;7.25;1.95;;;20.60;99.90;;;;;;5033581;28;20220;-85
2023/09/25 09:23:59;;;;;;;4.70;1.60;;;20.60;99.90;;;;;;5034618;28;20283;-85
2023/09/25 09:26:30;;;;;;;7.00;1.80;;;20.60;99.90;;;;;;5034748;28;20194;-85
2023/09/25 09:29:02;;;;;;;9.10;2.55;;;20.50;99.90;;;;;;5039437;28;20208;-84
2023/09/25 09:31:35;;;;;;;6.72;1.80;;;20.50;99.90;;;;;;5025348;28;20198;-84
2023/09/25 09:34:07;;;;;;;7.55;1.67;;;20.50;99.90;;;;;;5032739;28;20201;-87
2023/09/25 09:36:37;;;;;;;4.78;1.60;;;20.50;99.90;;;;;;5035565;28;20288;-85
2023/09/25 09:39:11;;;;;;;4.60;1.63;;;20.50;99.90;;;;;;5037265;28;20221;-85
2023/09/25 09:41:43;;;;;;;6.55;1.77;;;20.50;99.90;;;;;;5046005;28;20208;-86
2023/09/25 09:44:16;;;;;;;9.13;1.90;;;20.40;99.90;;;;;;5035735;28;20201;-85
2023/09/25 09:46:50;;;;;;;5.05;2.15;;;20.40;99.90;;;;;;5035137;28;20204;-86
2023/09/25 09:49:23;;;;;;;8.60;2.38;;;20.40;99.90;;;;;;5034280;28;20203;-84
2023/09/25 09:51:54;;;;;;;2.95;1.73;;;20.40;99.90;;;;;;5038531;28;20193;-85
2023/09/25 09:54:25;;;;;;;10.63;2.25;;;20.40;99.90;;;;;;5033572;28;20239;-86
2023/09/25 09:56:58;;;;;;;5.43;2.17;;;20.40;99.90;;;;;;5022412;28;20197;-85
2023/09/25 09:59:31;;;;;;;6.95;1.80;;;20.40;99.90;;;;;;5018146;28;20229;-85
2023/09/25 10:02:03;;;;;;;4.00;1.30;;;20.30;99.90;;;;;;5019948;28;20204;-84
2023/09/25 10:04:34;;;;;;;5.60;1.40;;;20.30;99.90;;;;;;5033489;28;20280;-84
2023/09/25 10:07:08;;;;;;;6.13;1.50;;;20.30;99.90;;;;;;5032867;28;20193;-85
2023/09/25 10:09:39;;;;;;;5.68;1.35;;;20.30;99.90;;;;;;5049173;28;20764;-84
2023/09/25 10:12:10;;;;;;;4.10;1.30;;;20.30;99.90;;;;;;5040318;28;20229;-83
2023/09/25 10:14:45;;;;;;;4.43;1.20;;;20.30;99.90;;;;;;5032918;28;20194;-85
2023/09/25 10:17:16;;;;;;;6.00;1.40;;;20.40;99.90;;;;;;5033457;28;20196;-85
2023/09/25 10:19:53;;;;;;;5.30;1.95;;;20.30;99.90;;;;;;5031754;28;20227;-86
2023/09/25 10:22:26;;;;;;;5.72;1.27;;;20.30;99.90;;;;;;5023801;28;20300;-86
2023/09/25 10:25:06;;;;;;;5.65;1.50;;;20.30;99.90;;;;;;5034024;28;20198;-86
2023/09/25 10:27:40;;;;;;;4.20;1.45;;;20.20;99.90;;;;;;5017287;28;20628;-86
2023/09/25 10:30:15;;;;;;;5.68;1.40;;;20.20;99.90;;;;;;5033964;28;20594;-85
2023/09/25 10:32:53;;;;;;;6.50;1.58;;;20.20;99.90;;;;;;5033354;28;20197;-85
2023/09/25 10:35:44;;;;;;;5.10;1.50;;;20.20;99.90;;;;;;5036359;28;20193;-85
2023/09/25 10:38:17;;;;;;;5.63;1.60;;;20.20;99.90;;;;;;5033258;28;20689;-85
2023/09/25 10:40:49;;;;;;;4.22;1.40;;;20.20;99.90;;;;;;5034078;28;20665;-85
2023/09/25 10:43:21;;;;;;;4.35;1.35;;;20.20;99.90;;;;;;5032920;28;20564;-86
2023/09/25 10:45:55;;;;;;;3.05;1.30;;;20.10;99.90;;;;;;5033629;28;20284;-86
2023/09/25 10:48:27;;;;;;;7.35;1.33;;;20.10;99.90;;;;;;5034036;28;20201;-85
2023/09/25 10:50:58;;;;;;;5.55;1.50;;;20.10;99.90;;;;;;5028780;28;20673;-86
2023/09/25 10:53:29;;;;;;;4.40;1.33;;;20.10;99.90;;;;;;5023470;28;20197;-86
2023/09/25 10:55:59;;;;;;;6.72;1.58;;;20.10;99.90;;;;;;5034164;28;20207;-85
2023/09/25 10:58:30;;;;;;;4.30;1.25;;;20.10;99.90;;;;;;5033334;28;20233;-86
2023/09/25 11:01:04;;;;;;;3.58;1.33;;;20.00;99.90;;;;;;5031465;28;20185;-86
2023/09/25 11:03:37;;;;;;;5.07;1.30;;;20.00;99.90;;;;;;5032721;28;20205;-86
2023/09/25 11:06:08;;;;;;;5.93;1.35;;;20.00;99.90;;;;;;5032707;28;20200;-82
2023/09/25 11:08:40;;;;;;;4.22;1.30;;;20.00;99.90;;;;;;5031827;28;20228;-84
2023/09/25 11:11:15;;;;;;;3.50;1.30;;;19.90;99.90;;;;;;5031955;28;20204;-83
2023/09/25 11:13:46;;;;;;;4.88;1.40;;;20.00;99.90;;;;;;5033043;28;20654;-84
2023/09/25 11:16:21;;;;;;;4.82;1.58;;;20.00;99.90;;;;;;5032412;28;20205;-86
2023/09/25 11:19:06;;;;;;;4.82;1.70;;;20.00;99.90;;;;;;5015495;28;20308;-87
2023/09/25 11:21:38;;;;;;;3.38;1.30;;;20.00;99.90;;;;;;5025251;28;20217;-86
2023/09/25 11:24:12;;;;;;;7.28;1.50;;;20.00;99.90;;;;;;5033986;28;20208;-85
2023/09/25 11:26:43;;;;;;;4.30;1.52;;;20.00;99.90;;;;;;5039872;28;20208;-86
2023/09/25 11:29:15;;;;;;;5.15;1.55;;;19.90;99.90;;;;;;5034242;28;20190;-85
2023/09/25 11:31:48;;;;;;;5.88;1.55;;;19.90;99.90;;;;;;5027006;28;20196;-85
2023/09/25 11:34:19;;;;;;;3.90;1.40;;;19.90;99.90;;;;;;5046210;28;20251;-81
2023/09/25 11:36:50;;;;;;;3.88;1.45;;;19.90;99.90;;;;;;5057690;28;20202;-85
2023/09/25 11:39:21;;;;;;;6.10;1.58;;;19.90;99.90;;;;;;5049103;28;20231;-82
2023/09/25 11:41:51;;;;;;;5.10;1.75;;;19.80;99.90;;;;;;5035168;28;20220;-84
2023/09/25 11:44:22;;;;;;;3.70;1.55;;;19.80;99.90;;;;;;5039061;28;20203;-84
2023/09/25 11:46:57;;;;;;;4.82;1.40;;;19.80;99.90;;;;;;5043103;28;20597;-85
2023/09/25 11:49:29;;;;;;;3.70;1.40;;;19.80;99.90;;;;;;5041737;28;20203;-82
2023/09/25 11:52:02;;;;;;;4.40;1.30;;;19.70;99.90;;;;;;5044704;28;20212;-85
2023/09/25 11:54:33;;;;;;;3.35;1.13;;;19.70;99.90;;;;;;5042134;28;20267;-85
2023/09/25 11:57:04;;;;;;;4.53;1.13;;;19.70;99.90;;;;;;5041437;28;20208;-84
2023/09/25 11:59:35;;;;;;;4.53;1.27;;;19.70;99.90;;;;;;5030255;28;20277;-82
2023/09/25 12:02:09;;;;;;;3.90;1.45;;;19.70;99.90;;;;;;5025221;28;20270;-84
2023/09/25 12:04:42;;;;;;;6.03;1.50;;;19.60;99.90;;;;;;5031235;28;20220;-84
2023/09/25 12:07:13;;;;;;;3.22;1.13;;;19.60;99.90;;;;;;5047735;28;20211;-85
2023/09/25 12:09:44;;;;;;;3.55;1.30;;;19.60;99.90;;;;;;5062487;28;20295;-85
2023/09/25 12:12:17;;;;;;;4.55;1.20;;;19.60;99.90;;;;;;5025376;28;20325;-85
2023/09/25 12:14:47;;;;;;;2.75;1.02;;;19.50;99.90;;;;;;5043394;28;20197;-85
2023/09/25 12:17:21;;;;;;;4.75;1.40;;;19.50;99.90;;;;;;5032889;28;20204;-85
2023/09/25 12:19:52;;;;;;;4.32;1.08;;;19.50;99.90;;;;;;5024815;28;20229;-86
2023/09/25 12:22:23;;;;;;;3.80;1.33;;;19.40;99.90;;;;;;5040604;28;20224;-83
2023/09/25 12:24:55;;;;;;;2.53;1.33;;;19.40;99.90;;;;;;5051387;28;20690;-85
2023/09/25 12:27:26;;;;;;;3.95;1.40;;;19.40;99.90;;;;;;5046417;28;20232;-85
2023/09/25 12:29:59;;;;;;;4.82;1.10;;;19.40;99.90;;;;;;5041702;28;20190;-83
2023/09/25 12:32:33;;;;;;;4.22;1.40;;;19.40;99.90;;;;;;5024228;28;20193;-82
2023/09/25 12:35:08;;;;;;;3.05;1.40;;;19.40;99.90;;;;;;5021243;28;20284;-86
2023/09/25 12:37:39;;;;;;;2.75;1.15;;;19.40;99.90;;;;;;5018128;28;20192;-85
2023/09/25 12:40:15;;;;;;;4.07;1.25;;;19.40;99.90;;;;;;5018826;28;20229;-86
2023/09/25 12:42:47;;;;;;;3.10;0.85;;;19.40;99.90;;;;;;5027685;28;20263;-85
2023/09/25 12:45:18;;;;;;;2.40;1.00;;;19.40;99.90;;;;;;5040678;28;20197;-83
2023/09/25 12:47:50;;;;;;;3.38;1.17;;;19.30;99.90;;;;;;5043306;28;20228;-83
2023/09/25 12:50:22;;;;;;;2.50;1.00;;;19.30;99.90;;;;;;5043160;28;20198;-82
2023/09/25 12:52:54;;;;;;;3.88;1.33;;;19.30;99.90;;;;;;5040312;28;20197;-83
2023/09/25 12:55:27;;;;;;;4.72;1.20;;;19.30;99.90;;;;;;5040167;28;20201;-87
2023/09/25 12:57:58;;;;;;;1.38;0.93;;;19.30;99.90;;;;;;5040874;28;20208;-85
2023/09/25 13:00:33;;;;;;;2.55;1.05;;;19.30;99.90;;;;;;5038185;28;20750;-82
2023/09/25 13:03:08;;;;;;;4.32;1.30;;;19.30;99.90;;;;;;5026767;28;20182;-85
2023/09/25 13:05:39;;;;;;;4.28;1.50;;;19.30;99.90;;;;;;5036258;28;20200;-83
2023/09/25 13:08:13;;;;;;;3.75;1.50;;;19.20;99.90;;;;;;5057232;28;20268;-83
2023/09/25 13:10:48;;;;;;;2.38;1.27;;;19.20;99.90;;;;;;5025182;28;20212;-83